createdAt,value
2022-10-02T00:00:28.720Z,8.00
2022-10-02T00:01:28.854Z,8.00
2022-10-02T00:02:28.748Z,8.10
2022-10-02T00:03:28.761Z,8.00
2022-10-02T00:04:28.827Z,8.10
2022-10-02T00:05:28.789Z,7.80
2022-10-02T00:06:28.800Z,8.20
2022-10-02T00:07:28.814Z,8.40
2022-10-02T00:08:28.829Z,8.00
2022-10-02T00:09:28.841Z,7.80
2022-10-02T00:10:28.855Z,7.60
2022-10-02T00:11:28.869Z,7.60
2022-10-02T00:12:28.880Z,7.70
2022-10-02T00:13:28.894Z,7.80
2022-10-02T00:14:28.925Z,8.10
2022-10-02T00:15:28.924Z,7.40
2022-10-02T00:16:28.992Z,7.90
2022-10-02T00:17:28.947Z,7.80
2022-10-02T00:18:28.961Z,7.50
2022-10-02T00:19:28.976Z,7.70
2022-10-02T00:20:28.988Z,7.40
2022-10-02T00:21:29.004Z,7.60
2022-10-02T00:22:29.015Z,7.60
2022-10-02T00:23:29.029Z,7.70
2022-10-02T00:24:29.042Z,7.30
2022-10-02T00:25:29.054Z,7.30
2022-10-02T00:26:29.070Z,7.40
2022-10-02T00:27:29.083Z,7.60
2022-10-02T00:28:29.200Z,7.20
2022-10-02T00:29:29.110Z,7.40
2022-10-02T00:30:29.142Z,7.10
2022-10-02T00:31:29.186Z,7.40
2022-10-02T00:32:29.150Z,7.50
2022-10-02T00:33:29.162Z,7.40
2022-10-02T00:34:29.176Z,7.60
2022-10-02T00:35:29.190Z,7.30
2022-10-02T00:36:29.202Z,7.40
2022-10-02T00:37:29.216Z,7.10
2022-10-02T00:38:29.229Z,7.00
2022-10-02T00:39:29.244Z,7.30
2022-10-02T00:40:29.256Z,7.50
2022-10-02T00:41:29.271Z,7.10
2022-10-02T00:42:29.285Z,7.30
2022-10-02T00:43:29.297Z,6.80
2022-10-02T00:44:29.311Z,6.80
2022-10-02T00:45:29.364Z,7.50
2022-10-02T00:46:29.357Z,6.60
2022-10-02T00:47:29.354Z,7.10
2022-10-02T00:48:29.366Z,7.30
2022-10-02T00:49:29.383Z,7.00
2022-10-02T00:50:29.393Z,7.10
2022-10-02T00:51:29.405Z,7.10
2022-10-02T00:52:29.419Z,7.20
2022-10-02T00:53:29.430Z,7.10
2022-10-02T00:54:29.451Z,7.30
2022-10-02T00:55:29.459Z,7.10
2022-10-02T00:56:29.471Z,7.30
2022-10-02T00:57:29.485Z,7.30
2022-10-02T00:58:29.498Z,7.00
2022-10-02T00:59:29.515Z,7.40
2022-10-02T01:00:29.524Z,7.00
2022-10-02T01:01:29.544Z,7.20
2022-10-02T01:02:29.663Z,7.40
2022-10-02T01:03:29.568Z,6.90
2022-10-02T01:04:29.580Z,6.80
2022-10-02T01:05:29.594Z,7.00
2022-10-02T01:06:29.607Z,6.90
2022-10-02T01:07:29.619Z,7.20
2022-10-02T01:08:29.632Z,6.70
2022-10-02T01:09:29.643Z,7.10
2022-10-02T01:10:29.660Z,7.10
2022-10-02T01:11:29.673Z,6.70
2022-10-02T01:12:29.685Z,6.90
2022-10-02T01:13:29.699Z,6.90
2022-10-02T01:14:29.713Z,7.00
2022-10-02T01:15:29.731Z,6.60
2022-10-02T01:16:29.818Z,7.40
2022-10-02T01:17:29.752Z,6.70
2022-10-02T01:18:29.785Z,7.30
2022-10-02T01:19:29.779Z,7.20
2022-10-02T01:20:29.792Z,7.00
2022-10-02T01:21:29.808Z,6.80
2022-10-02T01:22:29.819Z,6.80
2022-10-02T01:23:29.835Z,6.90
2022-10-02T01:24:29.849Z,6.90
2022-10-02T01:25:29.860Z,6.90
2022-10-02T01:26:29.873Z,6.70
2022-10-02T01:27:29.886Z,6.50
2022-10-02T01:28:29.962Z,6.90
2022-10-02T01:29:29.915Z,6.70
2022-10-02T01:30:29.929Z,7.10
2022-10-02T01:31:30.018Z,6.80
2022-10-02T01:32:29.953Z,6.60
2022-10-02T01:33:29.967Z,6.90
2022-10-02T01:34:30.052Z,6.80
2022-10-02T01:35:30.002Z,7.00
2022-10-02T01:36:30.006Z,6.60
2022-10-02T01:37:30.021Z,6.90
2022-10-02T01:38:30.035Z,7.00
2022-10-02T01:39:30.047Z,7.00
2022-10-02T01:40:30.060Z,6.50
2022-10-02T01:41:30.073Z,6.60
2022-10-02T01:42:30.090Z,7.20
2022-10-02T01:43:30.101Z,6.60
2022-10-02T01:44:30.112Z,6.70
2022-10-02T01:45:30.171Z,6.90
2022-10-02T01:46:30.139Z,6.40
2022-10-02T01:47:30.153Z,6.80
2022-10-02T01:48:30.167Z,6.70
2022-10-02T01:49:30.179Z,7.10
2022-10-02T01:50:30.215Z,6.80
2022-10-02T01:51:30.207Z,6.70
2022-10-02T01:52:30.220Z,7.10
2022-10-02T01:53:30.236Z,6.30
2022-10-02T01:54:30.248Z,7.00
2022-10-02T01:55:30.263Z,6.90
2022-10-02T01:56:30.276Z,6.50
2022-10-02T01:57:30.287Z,6.80
2022-10-02T01:58:30.301Z,6.90
2022-10-02T01:59:30.345Z,6.50
2022-10-02T02:00:30.350Z,6.60
2022-10-02T02:01:30.421Z,6.60
2022-10-02T02:02:30.420Z,6.70
2022-10-02T02:03:30.370Z,6.60
2022-10-02T02:04:30.380Z,6.60
2022-10-02T02:05:30.398Z,6.60
2022-10-02T02:06:30.428Z,6.90
2022-10-02T02:07:30.421Z,6.80
2022-10-02T02:08:30.434Z,6.90
2022-10-02T02:09:30.450Z,6.90
2022-10-02T02:10:30.462Z,6.90
2022-10-02T02:11:30.475Z,7.30
2022-10-02T02:12:30.492Z,7.00
2022-10-02T02:13:30.502Z,6.60
2022-10-02T02:14:30.514Z,6.70
2022-10-02T02:15:30.531Z,6.70
2022-10-02T02:16:30.627Z,6.40
2022-10-02T02:17:30.555Z,6.50
2022-10-02T02:18:30.567Z,7.10
2022-10-02T02:19:30.584Z,6.90
2022-10-02T02:20:30.594Z,6.60
2022-10-02T02:21:30.608Z,6.70
2022-10-02T02:22:30.659Z,6.70
2022-10-02T02:23:30.635Z,6.80
2022-10-02T02:24:30.648Z,6.80
2022-10-02T02:25:30.660Z,6.50
2022-10-02T02:26:30.674Z,6.70
2022-10-02T02:27:30.688Z,6.50
2022-10-02T02:28:30.723Z,6.90
2022-10-02T02:29:30.716Z,6.90
2022-10-02T02:30:30.728Z,6.80
2022-10-02T02:31:30.812Z,6.50
2022-10-02T02:32:30.753Z,6.70
2022-10-02T02:33:30.767Z,6.70
2022-10-02T02:34:30.779Z,7.10
2022-10-02T02:35:30.794Z,6.60
2022-10-02T02:36:30.807Z,6.40
2022-10-02T02:37:30.822Z,6.90
2022-10-02T02:38:30.870Z,6.70
2022-10-02T02:39:30.847Z,6.90
2022-10-02T02:40:30.861Z,6.80
2022-10-02T02:41:30.874Z,6.80
2022-10-02T02:42:30.887Z,6.60
2022-10-02T02:43:30.903Z,6.70
2022-10-02T02:44:30.913Z,6.90
2022-10-02T02:45:30.995Z,6.60
2022-10-02T02:46:30.941Z,6.40
2022-10-02T02:47:30.953Z,7.00
2022-10-02T02:48:30.966Z,6.80
2022-10-02T02:49:30.980Z,6.90
2022-10-02T02:50:30.994Z,6.90
2022-10-02T02:51:31.007Z,6.40
2022-10-02T02:52:31.023Z,6.80
2022-10-02T02:53:31.035Z,6.60
2022-10-02T02:54:31.066Z,6.50
2022-10-02T02:55:31.061Z,6.80
2022-10-02T02:56:31.073Z,6.70
2022-10-02T02:57:31.087Z,6.50
2022-10-02T02:58:31.099Z,6.40
2022-10-02T02:59:31.113Z,6.90
2022-10-02T03:00:31.128Z,7.00
2022-10-02T03:01:31.223Z,6.50
2022-10-02T03:02:31.285Z,6.60
2022-10-02T03:03:31.167Z,6.60
2022-10-02T03:04:31.182Z,6.70
2022-10-02T03:05:31.193Z,6.80
2022-10-02T03:06:31.208Z,6.80
2022-10-02T03:07:31.219Z,6.80
2022-10-02T03:08:31.232Z,6.60
2022-10-02T03:09:31.247Z,6.90
2022-10-02T03:10:31.278Z,6.30
2022-10-02T03:11:31.275Z,6.30
2022-10-02T03:12:31.286Z,6.50
2022-10-02T03:13:31.299Z,6.80
2022-10-02T03:14:31.312Z,7.00
2022-10-02T03:15:31.408Z,6.70
2022-10-02T03:16:31.339Z,6.40
2022-10-02T03:17:31.351Z,6.90
2022-10-02T03:18:31.366Z,6.70
2022-10-02T03:19:31.380Z,6.90
2022-10-02T03:20:31.391Z,7.00
2022-10-02T03:21:31.404Z,6.40
2022-10-02T03:22:31.417Z,6.40
2022-10-02T03:23:31.432Z,7.00
2022-10-02T03:24:31.444Z,6.60
2022-10-02T03:25:31.459Z,6.50
2022-10-02T03:26:31.491Z,6.70
2022-10-02T03:27:35.014Z,6.80
2022-10-02T03:28:54.280Z,6.60
2022-10-02T03:29:31.513Z,6.40
2022-10-02T03:30:31.527Z,6.90
2022-10-02T03:31:31.610Z,6.50
2022-10-02T03:32:31.554Z,6.60
2022-10-02T03:33:31.565Z,6.50
2022-10-02T03:34:31.577Z,6.30
2022-10-02T03:35:31.594Z,6.60
2022-10-02T03:36:31.604Z,6.50
2022-10-02T03:37:31.617Z,6.60
2022-10-02T03:38:31.633Z,6.50
2022-10-02T03:39:31.643Z,6.40
2022-10-02T03:40:31.656Z,7.00
2022-10-02T03:41:31.675Z,6.40
2022-10-02T03:42:31.706Z,6.70
2022-10-02T03:43:31.697Z,6.40
2022-10-02T03:44:31.714Z,6.40
2022-10-02T03:45:51.449Z,6.90
2022-10-02T03:46:31.822Z,6.70
2022-10-02T03:47:31.749Z,7.10
2022-10-02T03:48:31.766Z,6.60
2022-10-02T03:49:31.776Z,6.80
2022-10-02T03:50:36.183Z,6.90
2022-10-02T03:51:31.805Z,6.50
2022-10-02T03:52:31.816Z,6.70
2022-10-02T03:53:31.829Z,6.80
2022-10-02T03:54:31.844Z,6.80
2022-10-02T03:55:31.857Z,6.50
2022-10-02T03:56:31.869Z,6.90
2022-10-02T03:57:31.882Z,6.30
2022-10-02T03:58:31.913Z,6.40
2022-10-02T03:59:31.912Z,6.90
2022-10-02T04:00:31.922Z,6.80
2022-10-02T04:01:31.978Z,6.60
2022-10-02T04:02:31.949Z,6.50
2022-10-02T04:03:32.053Z,6.60
2022-10-02T04:04:31.977Z,6.90
2022-10-02T04:05:31.991Z,6.50
2022-10-02T04:06:32.002Z,6.80
2022-10-02T04:07:32.019Z,6.70
2022-10-02T04:08:32.028Z,6.60
2022-10-02T04:09:32.040Z,6.90
2022-10-02T04:10:32.054Z,6.50
2022-10-02T04:11:32.071Z,6.90
2022-10-02T04:12:32.080Z,6.50
2022-10-02T04:13:32.095Z,6.60
2022-10-02T04:14:32.126Z,6.90
2022-10-02T04:15:32.120Z,6.40
2022-10-02T04:16:32.176Z,7.00
2022-10-02T04:17:32.145Z,6.80
2022-10-02T04:18:32.163Z,6.80
2022-10-02T04:19:32.175Z,6.40
2022-10-02T04:20:32.188Z,6.90
2022-10-02T04:21:32.200Z,6.90
2022-10-02T04:22:32.212Z,6.80
2022-10-02T04:23:32.228Z,6.70
2022-10-02T04:24:32.239Z,7.10
2022-10-02T04:25:32.253Z,7.00
2022-10-02T04:26:32.269Z,6.90
2022-10-02T04:27:32.281Z,7.20
2022-10-02T04:28:32.294Z,7.00
2022-10-02T04:29:32.305Z,6.70
2022-10-02T04:30:32.335Z,6.80
2022-10-02T04:31:32.407Z,6.70
2022-10-02T04:32:32.343Z,6.80
2022-10-02T04:33:36.373Z,6.60
2022-10-02T04:34:32.373Z,6.90
2022-10-02T04:35:32.387Z,7.00
2022-10-02T04:36:32.398Z,6.80
2022-10-02T04:37:32.413Z,6.50
2022-10-02T04:38:32.425Z,6.80
2022-10-02T04:39:32.440Z,6.90
2022-10-02T04:40:32.451Z,6.60
2022-10-02T04:41:32.463Z,7.00
2022-10-02T04:42:32.476Z,7.10
2022-10-02T04:43:32.490Z,7.00
2022-10-02T04:44:32.506Z,6.60
2022-10-02T04:45:32.585Z,6.70
2022-10-02T04:46:32.626Z,7.30
2022-10-02T04:47:32.544Z,7.10
2022-10-02T04:48:32.555Z,7.10
2022-10-02T04:49:32.569Z,6.50
2022-10-02T04:50:32.584Z,6.90
2022-10-02T04:51:32.595Z,6.80
2022-10-02T04:52:32.609Z,6.90
2022-10-02T04:53:32.624Z,6.90
2022-10-02T04:54:32.636Z,6.80
2022-10-02T04:55:32.649Z,7.10
2022-10-02T04:56:32.661Z,7.00
2022-10-02T04:57:32.674Z,6.80
2022-10-02T04:58:32.689Z,7.10
2022-10-02T04:59:32.702Z,7.00
2022-10-02T05:00:32.772Z,7.10
2022-10-02T05:01:32.726Z,7.00
2022-10-02T05:02:32.759Z,7.10
2022-10-02T05:03:32.755Z,6.80
2022-10-02T05:04:32.767Z,6.50
2022-10-02T05:05:32.782Z,7.10
2022-10-02T05:06:32.980Z,7.00
2022-10-02T05:07:32.807Z,6.50
2022-10-02T05:08:32.819Z,6.70
2022-10-02T05:09:32.831Z,7.00
2022-10-02T05:10:32.848Z,6.80
2022-10-02T05:11:32.858Z,6.90
2022-10-02T05:12:32.872Z,6.70
2022-10-02T05:13:32.904Z,6.80
2022-10-02T05:14:32.899Z,6.90
2022-10-02T05:15:32.913Z,6.70
2022-10-02T05:16:33.025Z,7.00
2022-10-02T05:17:32.938Z,7.00
2022-10-02T05:18:32.969Z,6.70
2022-10-02T05:19:32.964Z,7.30
2022-10-02T05:20:32.977Z,7.10
2022-10-02T05:21:32.992Z,6.90
2022-10-02T05:22:33.003Z,6.90
2022-10-02T05:23:33.016Z,6.80
2022-10-02T05:24:33.030Z,7.00
2022-10-02T05:25:33.042Z,6.60
2022-10-02T05:26:33.119Z,6.80
2022-10-02T05:27:33.070Z,7.00
2022-10-02T05:28:33.175Z,6.90
2022-10-02T05:29:33.095Z,6.90
2022-10-02T05:30:33.110Z,6.70
2022-10-02T05:31:33.140Z,7.00
2022-10-02T05:32:33.135Z,7.00
2022-10-02T05:33:33.169Z,6.70
2022-10-02T05:34:33.179Z,6.70
2022-10-02T05:35:33.174Z,6.90
2022-10-02T05:36:33.614Z,7.00
2022-10-02T05:37:33.200Z,6.50
2022-10-02T05:38:33.213Z,6.60
2022-10-02T05:39:33.227Z,6.80
2022-10-02T05:40:33.240Z,6.40
2022-10-02T05:41:33.264Z,6.60
2022-10-02T05:42:33.265Z,6.40
2022-10-02T05:43:33.279Z,6.90
2022-10-02T05:44:33.293Z,7.20
2022-10-02T05:45:33.308Z,6.70
2022-10-02T05:46:33.390Z,6.70
2022-10-02T05:47:33.334Z,6.80
2022-10-02T05:48:33.343Z,7.00
2022-10-02T05:49:33.357Z,6.70
2022-10-02T05:50:33.449Z,6.60
2022-10-02T05:51:33.384Z,7.00
2022-10-02T05:52:33.397Z,6.90
2022-10-02T05:53:33.409Z,7.00
2022-10-02T05:54:33.422Z,6.70
2022-10-02T05:55:33.436Z,6.90
2022-10-02T05:56:33.595Z,7.00
2022-10-02T05:57:33.463Z,6.90
2022-10-02T05:58:33.475Z,7.20
2022-10-02T05:59:33.487Z,6.70
2022-10-02T06:00:33.501Z,6.80
2022-10-02T06:01:33.686Z,6.60
2022-10-02T06:02:38.807Z,6.60
2022-10-02T06:03:33.546Z,7.00
2022-10-02T06:04:33.642Z,6.60
2022-10-02T06:05:33.589Z,7.10
2022-10-02T06:06:33.929Z,7.00
2022-10-02T06:07:33.604Z,6.60
2022-10-02T06:08:33.618Z,6.70
2022-10-02T06:09:33.624Z,6.60
2022-10-02T06:10:33.666Z,7.10
2022-10-02T06:11:33.655Z,6.70
2022-10-02T06:12:33.657Z,6.60
2022-10-02T06:13:33.669Z,6.60
2022-10-02T06:14:33.685Z,6.70
2022-10-02T06:15:33.698Z,6.60
2022-10-02T06:16:34.123Z,7.10
2022-10-02T06:17:33.723Z,6.60
2022-10-02T06:18:33.735Z,6.80
2022-10-02T06:19:33.750Z,7.10
2022-10-02T06:20:33.762Z,6.60
2022-10-02T06:21:33.775Z,6.60
2022-10-02T06:22:33.806Z,6.60
2022-10-02T06:23:33.801Z,6.40
2022-10-02T06:24:33.814Z,6.50
2022-10-02T06:25:33.828Z,7.30
2022-10-02T06:26:34.457Z,6.80
2022-10-02T06:27:33.856Z,7.00
2022-10-02T06:28:33.867Z,7.30
2022-10-02T06:29:33.878Z,7.00
2022-10-02T06:30:33.893Z,7.00
2022-10-02T06:31:33.955Z,6.90
2022-10-02T06:32:33.916Z,6.60
2022-10-02T06:33:33.931Z,6.80
2022-10-02T06:34:33.945Z,6.80
2022-10-02T06:35:33.957Z,6.30
2022-10-02T06:36:34.324Z,7.00
2022-10-02T06:37:33.985Z,7.10
2022-10-02T06:38:34.015Z,6.80
2022-10-02T06:39:34.011Z,6.70
2022-10-02T06:40:34.021Z,6.50
2022-10-02T06:41:34.034Z,7.20
2022-10-02T06:42:34.054Z,6.80
2022-10-02T06:43:34.061Z,7.20
2022-10-02T06:44:34.075Z,6.80
2022-10-02T06:45:34.156Z,6.50
2022-10-02T06:46:34.376Z,6.60
2022-10-02T06:47:34.114Z,6.80
2022-10-02T06:48:34.125Z,7.00
2022-10-02T06:49:34.138Z,6.70
2022-10-02T06:50:34.152Z,6.70
2022-10-02T06:51:34.165Z,6.90
2022-10-02T06:52:37.924Z,7.00
2022-10-02T06:53:34.190Z,6.80
2022-10-02T06:54:34.220Z,7.10
2022-10-02T06:55:34.222Z,7.10
2022-10-02T06:56:34.743Z,7.10
2022-10-02T06:57:34.242Z,7.40
2022-10-02T06:58:34.254Z,7.00
2022-10-02T06:59:34.273Z,7.40
2022-10-02T07:00:34.293Z,7.60
2022-10-02T07:01:34.295Z,7.50
2022-10-02T07:02:34.354Z,7.80
2022-10-02T07:03:34.320Z,7.70
2022-10-02T07:04:34.331Z,7.60
2022-10-02T07:05:34.344Z,7.60
2022-10-02T07:06:34.735Z,7.80
2022-10-02T07:07:34.372Z,7.50
2022-10-02T07:08:34.384Z,7.40
2022-10-02T07:09:34.401Z,7.80
2022-10-02T07:10:34.428Z,8.10
2022-10-02T07:11:34.427Z,8.10
2022-10-02T07:12:34.440Z,7.70
2022-10-02T07:13:34.450Z,8.00
2022-10-02T07:14:34.462Z,7.80
2022-10-02T07:15:34.475Z,8.00
2022-10-02T07:16:34.995Z,7.90
2022-10-02T07:17:34.500Z,7.90
2022-10-02T07:18:34.515Z,8.00
2022-10-02T07:19:34.528Z,8.20
2022-10-02T07:20:34.540Z,7.80
2022-10-02T07:21:34.553Z,7.80
2022-10-02T07:22:46.703Z,8.00
2022-10-02T07:23:34.585Z,7.80
2022-10-02T07:24:34.597Z,7.90
2022-10-02T07:25:34.706Z,7.70
2022-10-02T07:26:34.966Z,7.90
2022-10-02T07:27:34.630Z,8.10
2022-10-02T07:28:34.714Z,8.10
2022-10-02T07:29:34.657Z,8.30
2022-10-02T07:30:34.669Z,7.60
2022-10-02T07:31:34.754Z,8.30
2022-10-02T07:32:34.697Z,8.10
2022-10-02T07:33:34.708Z,7.90
2022-10-02T07:34:34.722Z,8.40
2022-10-02T07:35:34.734Z,7.80
2022-10-02T07:36:35.037Z,7.60
2022-10-02T07:37:34.758Z,8.10
2022-10-02T07:38:34.772Z,8.00
2022-10-02T07:39:34.787Z,7.40
2022-10-02T07:40:34.798Z,8.20
2022-10-02T07:41:34.814Z,8.10
2022-10-02T07:42:34.842Z,8.10
2022-10-02T07:43:34.837Z,8.10
2022-10-02T07:44:34.849Z,8.50
2022-10-02T07:45:34.930Z,8.10
2022-10-02T07:46:35.102Z,8.60
2022-10-02T07:47:34.888Z,8.60
2022-10-02T07:48:34.901Z,8.50
2022-10-02T07:49:34.915Z,8.40
2022-10-02T07:50:34.928Z,8.10
2022-10-02T07:51:34.941Z,8.50
2022-10-02T07:52:34.953Z,8.90
2022-10-02T07:53:34.965Z,8.80
2022-10-02T07:54:34.978Z,8.70
2022-10-02T07:55:34.993Z,8.00
2022-10-02T07:56:35.209Z,8.50
2022-10-02T07:57:35.018Z,8.30
2022-10-02T07:58:35.047Z,8.10
2022-10-02T07:59:35.046Z,8.10
2022-10-02T08:00:35.055Z,8.50
2022-10-02T08:01:35.071Z,7.90
2022-10-02T08:02:35.139Z,8.80
2022-10-02T08:03:35.117Z,8.40
2022-10-02T08:04:37.341Z,8.20
2022-10-02T08:05:35.121Z,8.50
2022-10-02T08:06:35.415Z,8.20
2022-10-02T08:07:35.147Z,8.80
2022-10-02T08:08:35.159Z,8.20
2022-10-02T08:09:35.172Z,8.20
2022-10-02T08:10:35.185Z,8.20
2022-10-02T08:11:35.198Z,8.70
2022-10-02T08:12:35.211Z,8.10
2022-10-02T08:13:35.223Z,8.50
2022-10-02T08:14:35.252Z,8.10
2022-10-02T08:15:35.248Z,8.60
2022-10-02T08:16:35.617Z,8.30
2022-10-02T08:17:35.274Z,8.20
2022-10-02T08:18:35.931Z,8.50
2022-10-02T08:19:35.299Z,8.30
2022-10-02T08:20:35.314Z,7.90
2022-10-02T08:21:35.325Z,8.20
2022-10-02T08:22:35.337Z,8.10
2022-10-02T08:23:35.354Z,7.80
2022-10-02T08:24:35.363Z,8.10
2022-10-02T08:25:35.376Z,8.50
2022-10-02T08:26:36.168Z,8.40
2022-10-02T08:27:35.402Z,7.80
2022-10-02T08:28:35.418Z,8.10
2022-10-02T08:29:35.429Z,8.00
2022-10-02T08:30:35.458Z,7.90
2022-10-02T08:31:35.577Z,8.50
2022-10-02T08:32:35.467Z,7.90
2022-10-02T08:33:35.481Z,8.00
2022-10-02T08:34:35.496Z,8.20
2022-10-02T08:35:35.505Z,8.10
2022-10-02T08:36:35.854Z,8.10
2022-10-02T08:37:35.530Z,8.20
2022-10-02T08:38:35.543Z,8.10
2022-10-02T08:39:35.556Z,7.80
2022-10-02T08:40:35.569Z,7.50
2022-10-02T08:41:35.581Z,8.10
2022-10-02T08:42:35.597Z,8.40
2022-10-02T08:43:35.608Z,7.70
2022-10-02T08:44:36.604Z,7.90
2022-10-02T08:45:35.643Z,7.60
2022-10-02T08:46:35.951Z,7.50
2022-10-02T08:47:35.659Z,7.90
2022-10-02T08:48:35.672Z,7.60
2022-10-02T08:49:35.684Z,8.00
2022-10-02T08:50:35.699Z,8.00
2022-10-02T08:51:35.712Z,8.00
2022-10-02T08:52:35.722Z,7.80
2022-10-02T08:53:35.735Z,7.40
2022-10-02T08:54:35.749Z,7.80
2022-10-02T08:55:35.763Z,7.80
2022-10-02T08:56:36.077Z,7.70
2022-10-02T08:57:35.787Z,8.30
2022-10-02T08:58:35.802Z,7.80
2022-10-02T08:59:35.813Z,8.00
2022-10-02T09:00:35.924Z,7.50
2022-10-02T09:01:35.838Z,7.40
2022-10-02T09:02:35.919Z,7.90
2022-10-02T09:03:35.864Z,7.70
2022-10-02T09:04:35.876Z,7.90
2022-10-02T09:05:35.889Z,7.50
2022-10-02T09:06:36.144Z,7.80
2022-10-02T09:07:35.918Z,8.10
2022-10-02T09:08:35.926Z,7.50
2022-10-02T09:09:35.940Z,7.90
2022-10-02T09:10:35.954Z,7.90
2022-10-02T09:11:35.967Z,8.10
2022-10-02T09:12:35.979Z,7.70
2022-10-02T09:13:35.991Z,7.60
2022-10-02T09:14:36.004Z,7.70
2022-10-02T09:15:36.021Z,7.80
2022-10-02T09:16:36.261Z,7.90
2022-10-02T09:17:36.043Z,7.40
2022-10-02T09:18:36.073Z,7.90
2022-10-02T09:19:36.068Z,7.80
2022-10-02T09:20:36.082Z,7.70
2022-10-02T09:21:36.093Z,7.90
2022-10-02T09:22:36.106Z,7.50
2022-10-02T09:23:36.121Z,8.00
2022-10-02T09:24:36.132Z,8.00
2022-10-02T09:25:36.146Z,8.10
2022-10-02T09:26:36.446Z,8.20
2022-10-02T09:27:36.170Z,7.10
2022-10-02T09:28:36.249Z,8.00
2022-10-02T09:29:36.196Z,7.40
2022-10-02T09:30:36.208Z,7.60
2022-10-02T09:31:36.258Z,8.00
2022-10-02T09:32:36.234Z,7.20
2022-10-02T09:33:36.246Z,7.40
2022-10-02T09:34:36.278Z,8.00
2022-10-02T09:35:36.271Z,7.60
2022-10-02T09:36:36.595Z,7.40
2022-10-02T09:37:36.299Z,7.60
2022-10-02T09:38:39.158Z,7.80
2022-10-02T09:39:36.322Z,7.30
2022-10-02T09:40:36.335Z,7.60
2022-10-02T09:41:36.349Z,7.70
2022-10-02T09:42:36.361Z,7.80
2022-10-02T09:43:36.374Z,7.60
2022-10-02T09:44:36.386Z,7.90
2022-10-02T09:45:36.571Z,7.80
2022-10-02T09:46:36.722Z,7.30
2022-10-02T09:47:36.426Z,7.50
2022-10-02T09:48:36.438Z,7.50
2022-10-02T09:49:36.449Z,7.20
2022-10-02T09:50:36.484Z,7.30
2022-10-02T09:51:36.478Z,7.60
2022-10-02T09:52:40.642Z,7.30
2022-10-02T09:53:36.503Z,7.40
2022-10-02T09:54:36.515Z,6.80
2022-10-02T09:55:36.529Z,7.30
2022-10-02T09:56:36.830Z,7.30
2022-10-02T09:57:36.552Z,7.30
2022-10-02T09:58:36.568Z,7.10
2022-10-02T09:59:36.579Z,7.70
2022-10-02T10:00:36.591Z,7.10
2022-10-02T10:01:36.604Z,7.30
2022-10-02T10:02:36.679Z,7.30
2022-10-02T10:03:36.636Z,7.40
2022-10-02T10:04:54.035Z,7.40
2022-10-02T10:05:36.656Z,7.00
2022-10-02T10:06:37.027Z,7.40
2022-10-02T10:07:36.684Z,7.20
2022-10-02T10:08:36.694Z,6.90
2022-10-02T10:09:36.708Z,7.10
2022-10-02T10:10:36.718Z,6.80
2022-10-02T10:11:37.005Z,7.10
2022-10-02T10:12:36.745Z,7.40
2022-10-02T10:13:36.757Z,7.00
2022-10-02T10:14:36.771Z,7.30
2022-10-02T10:15:36.784Z,6.80
2022-10-02T10:16:36.822Z,7.10
2022-10-02T10:17:36.808Z,7.10
2022-10-02T10:18:36.822Z,7.30
2022-10-02T10:19:36.834Z,6.70
2022-10-02T10:20:36.848Z,7.70
2022-10-02T10:21:37.084Z,7.10
2022-10-02T10:22:36.894Z,7.40
2022-10-02T10:23:36.887Z,7.00
2022-10-02T10:24:36.896Z,7.60
2022-10-02T10:25:36.913Z,7.00
2022-10-02T10:26:36.923Z,7.20
2022-10-02T10:27:36.935Z,7.20
2022-10-02T10:28:36.948Z,7.40
2022-10-02T10:29:36.963Z,7.70
2022-10-02T10:30:36.975Z,7.10
2022-10-02T10:31:37.322Z,7.00
2022-10-02T10:32:36.998Z,6.90
2022-10-02T10:33:37.012Z,6.80
2022-10-02T10:34:37.025Z,7.00
2022-10-02T10:35:37.038Z,7.40
2022-10-02T10:36:37.048Z,6.90
2022-10-02T10:37:37.064Z,7.60
2022-10-02T10:38:37.092Z,7.00
2022-10-02T10:39:37.089Z,7.40
2022-10-02T10:40:37.103Z,7.30
2022-10-02T10:41:37.365Z,7.00
2022-10-02T10:42:50.155Z,7.20
2022-10-02T10:43:37.138Z,7.10
2022-10-02T10:44:37.155Z,6.90
2022-10-02T10:45:37.217Z,7.10
2022-10-02T10:46:37.182Z,6.90
2022-10-02T10:47:37.191Z,7.50
2022-10-02T10:48:37.203Z,7.10
2022-10-02T10:49:37.215Z,7.20
2022-10-02T10:50:37.226Z,7.40
2022-10-02T10:51:37.689Z,7.20
2022-10-02T10:52:37.252Z,6.80
2022-10-02T10:53:37.265Z,6.90
2022-10-02T10:54:37.297Z,7.30
2022-10-02T10:55:37.297Z,7.20
2022-10-02T10:56:37.313Z,6.90
2022-10-02T10:57:37.318Z,7.20
2022-10-02T10:58:37.330Z,7.00
2022-10-02T10:59:37.342Z,6.80
2022-10-02T11:00:37.358Z,6.80
2022-10-02T11:01:37.748Z,7.00
2022-10-02T11:02:37.407Z,6.70
2022-10-02T11:03:37.393Z,6.60
2022-10-02T11:04:37.405Z,7.30
2022-10-02T11:05:37.419Z,7.00
2022-10-02T11:06:37.430Z,6.70
2022-10-02T11:07:37.443Z,7.50
2022-10-02T11:08:37.455Z,7.30
2022-10-02T11:09:37.468Z,7.10
2022-10-02T11:10:37.498Z,7.10
2022-10-02T11:11:37.728Z,7.20
2022-10-02T11:12:37.508Z,7.00
2022-10-02T11:13:37.518Z,7.00
2022-10-02T11:14:37.533Z,7.20
2022-10-02T11:15:37.545Z,6.90
2022-10-02T11:16:37.634Z,7.30
2022-10-02T11:17:37.570Z,6.90
2022-10-02T11:18:37.583Z,6.90
2022-10-02T11:19:37.597Z,6.60
2022-10-02T11:20:37.609Z,7.10
2022-10-02T11:21:38.086Z,7.10
2022-10-02T11:22:37.634Z,6.90
2022-10-02T11:23:37.647Z,6.80
2022-10-02T11:24:37.659Z,7.10
2022-10-02T11:25:37.673Z,6.60
2022-10-02T11:26:37.705Z,7.00
2022-10-02T11:27:37.699Z,6.80
2022-10-02T11:28:37.710Z,6.60
2022-10-02T11:29:37.723Z,7.10
2022-10-02T11:30:41.578Z,7.00
2022-10-02T11:31:38.081Z,6.70
2022-10-02T11:32:37.763Z,6.70
2022-10-02T11:33:37.775Z,6.70
2022-10-02T11:34:37.798Z,6.70
2022-10-02T11:35:37.801Z,6.90
2022-10-02T11:36:37.811Z,6.60
2022-10-02T11:37:37.828Z,6.70
2022-10-02T11:38:37.840Z,6.40
2022-10-02T11:39:37.850Z,6.60
2022-10-02T11:40:37.863Z,6.50
2022-10-02T11:41:38.270Z,6.60
2022-10-02T11:42:37.905Z,6.50
2022-10-02T11:43:43.161Z,6.10
2022-10-02T11:44:37.913Z,6.80
2022-10-02T11:45:37.975Z,6.60
2022-10-02T11:46:37.939Z,6.60
2022-10-02T11:47:37.951Z,6.70
2022-10-02T11:48:37.964Z,6.90
2022-10-02T11:49:38.004Z,6.50
2022-10-02T11:50:37.993Z,6.40
2022-10-02T11:51:38.455Z,5.80
2022-10-02T11:52:38.016Z,6.10
2022-10-02T11:53:38.029Z,6.70
2022-10-02T11:54:38.040Z,6.40
2022-10-02T11:55:38.054Z,6.50
2022-10-02T11:56:38.066Z,6.30
2022-10-02T11:57:38.081Z,6.10
2022-10-02T11:58:38.109Z,6.30
2022-10-02T11:59:38.105Z,6.50
2022-10-02T12:00:38.117Z,6.40
2022-10-02T12:01:38.684Z,6.40
2022-10-02T12:02:38.260Z,6.10
2022-10-02T12:03:38.156Z,6.70
2022-10-02T12:04:38.171Z,6.20
2022-10-02T12:05:38.180Z,6.10
2022-10-02T12:06:38.194Z,6.20
2022-10-02T12:07:38.210Z,6.10
2022-10-02T12:08:38.217Z,6.30
2022-10-02T12:09:38.231Z,5.80
2022-10-02T12:10:38.247Z,6.30
2022-10-02T12:11:38.641Z,6.10
2022-10-02T12:12:38.269Z,5.90
2022-10-02T12:13:38.282Z,6.50
2022-10-02T12:14:38.311Z,5.60
2022-10-02T12:15:38.309Z,6.20
2022-10-02T12:16:38.381Z,5.80
2022-10-02T12:17:38.332Z,5.90
2022-10-02T12:18:38.346Z,6.00
2022-10-02T12:19:38.360Z,6.30
2022-10-02T12:20:38.370Z,6.20
2022-10-02T12:21:38.824Z,6.20
2022-10-02T12:22:38.396Z,6.00
2022-10-02T12:23:38.411Z,5.60
2022-10-02T12:24:38.424Z,5.60
2022-10-02T12:25:38.436Z,6.20
2022-10-02T12:26:38.448Z,5.90
2022-10-02T12:27:38.461Z,5.80
2022-10-02T12:28:38.473Z,5.30
2022-10-02T12:29:38.485Z,5.80
2022-10-02T12:30:38.522Z,5.80
2022-10-02T12:31:38.831Z,6.00
2022-10-02T12:32:38.526Z,5.80
2022-10-02T12:33:38.537Z,5.90
2022-10-02T12:34:38.551Z,5.90
2022-10-02T12:35:38.562Z,5.90
2022-10-02T12:36:38.574Z,5.60
2022-10-02T12:37:38.589Z,6.00
2022-10-02T12:38:38.601Z,6.00
2022-10-02T12:39:38.615Z,5.90
2022-10-02T12:40:38.626Z,5.90
2022-10-02T12:41:39.127Z,5.70
2022-10-02T12:42:38.652Z,6.20
2022-10-02T12:43:38.663Z,5.50
2022-10-02T12:44:38.679Z,5.60
2022-10-02T12:45:38.738Z,6.00
2022-10-02T12:46:38.721Z,5.50
2022-10-02T12:47:38.717Z,6.00
2022-10-02T12:48:38.728Z,5.80
2022-10-02T12:49:38.740Z,5.50
2022-10-02T12:50:38.754Z,5.60
2022-10-02T12:51:39.262Z,5.60
2022-10-02T12:52:38.778Z,5.60
2022-10-02T12:53:38.793Z,5.70
2022-10-02T12:54:38.804Z,5.40
2022-10-02T12:55:38.817Z,5.60
2022-10-02T12:56:38.834Z,5.30
2022-10-02T12:57:39.388Z,5.70
2022-10-02T12:58:38.856Z,5.80
2022-10-02T12:59:38.870Z,5.60
2022-10-02T13:00:38.881Z,5.30
2022-10-02T13:01:39.250Z,5.70
2022-10-02T13:02:59.960Z,5.30
2022-10-02T13:03:38.918Z,5.20
2022-10-02T13:04:38.932Z,5.30
2022-10-02T13:05:38.944Z,5.30
2022-10-02T13:06:38.956Z,5.60
2022-10-02T13:07:38.970Z,5.60
2022-10-02T13:08:38.981Z,5.40
2022-10-02T13:09:38.997Z,5.40
2022-10-02T13:10:39.009Z,5.40
2022-10-02T13:11:39.643Z,5.20
2022-10-02T13:12:39.034Z,5.50
2022-10-02T13:13:39.047Z,5.20
2022-10-02T13:14:39.061Z,5.50
2022-10-02T13:15:39.072Z,5.70
2022-10-02T13:16:39.132Z,4.90
2022-10-02T13:17:39.097Z,5.50
2022-10-02T13:18:39.129Z,5.20